createdAt,value
2018-01-16T00:01:35.880Z,96374.56
2018-01-16T00:04:04.880Z,96382.60
2018-01-16T00:06:33.911Z,96390.30
2018-01-16T00:09:02.173Z,96383.02
2018-01-16T00:11:31.310Z,96371.79
2018-01-16T00:13:59.555Z,96362.25
2018-01-16T00:16:28.592Z,96360.13
2018-01-16T00:18:56.841Z,96353.19
2018-01-16T00:21:25.074Z,96356.16
2018-01-16T00:23:53.337Z,96360.58
2018-01-16T00:26:22.356Z,96351.73
2018-01-16T00:28:50.610Z,96351.56
2018-01-16T00:31:18.888Z,96352.59
2018-01-16T00:33:47.167Z,96356.06
2018-01-16T00:36:15.488Z,96347.78
2018-01-16T00:38:44.569Z,96334.25
2018-01-16T00:41:12.911Z,96336.24
2018-01-16T00:43:41.166Z,96338.19
2018-01-16T00:46:09.417Z,96340.39
2018-01-16T00:48:37.682Z,96333.75
2018-01-16T00:51:05.951Z,96324.17
2018-01-16T00:53:34.995Z,96319.86
2018-01-16T00:56:03.260Z,96319.42
2018-01-16T00:58:31.518Z,96307.30
2018-01-16T01:00:59.769Z,96310.69
2018-01-16T01:03:28.032Z,96308.62
2018-01-16T01:05:56.276Z,96308.68
2018-01-16T01:08:24.533Z,96315.16
2018-01-16T01:10:52.782Z,96320.25
2018-01-16T01:13:21.813Z,96311.41
2018-01-16T01:15:50.107Z,96314.38
2018-01-16T01:18:19.224Z,96315.07
2018-01-16T01:20:47.513Z,96311.34
2018-01-16T01:23:15.847Z,96311.22
2018-01-16T01:25:44.171Z,96317.47
2018-01-16T01:28:12.459Z,96322.36
2018-01-16T01:30:40.714Z,96315.47
2018-01-16T01:33:08.973Z,96306.23
2018-01-16T01:35:37.226Z,96304.19
2018-01-16T01:38:05.477Z,96304.02
2018-01-16T01:40:33.758Z,96296.78
2018-01-16T01:43:02.032Z,96300.95
2018-01-16T01:45:30.291Z,96309.83
2018-01-16T01:47:58.570Z,96310.59
2018-01-16T01:50:26.837Z,96306.59
2018-01-16T01:52:55.858Z,96309.56
2018-01-16T01:55:24.114Z,96304.64
2018-01-16T01:57:52.351Z,96311.13
2018-01-16T02:00:20.620Z,96312.64
2018-01-16T02:02:48.869Z,96307.63
2018-01-16T02:05:17.139Z,96317.13
2018-01-16T02:07:45.382Z,96309.75
2018-01-16T02:10:14.402Z,96307.88
2018-01-16T02:12:42.691Z,96310.52
2018-01-16T02:15:11.719Z,96306.06
2018-01-16T02:17:39.983Z,96318.05
2018-01-16T02:20:08.283Z,96310.40
2018-01-16T02:22:36.527Z,96320.85
2018-01-16T02:25:04.811Z,96319.05
2018-01-16T02:27:33.055Z,96315.84
2018-01-16T02:30:01.313Z,96310.12
2018-01-16T02:32:29.546Z,96295.89
2018-01-16T02:34:57.824Z,96284.61
2018-01-16T02:37:26.858Z,96285.28
2018-01-16T02:39:55.127Z,96292.09
2018-01-16T02:42:23.372Z,96294.89
2018-01-16T02:44:52.406Z,96293.82
2018-01-16T02:47:20.656Z,96281.73
2018-01-16T02:49:49.681Z,96294.50
2018-01-16T02:52:17.939Z,96295.58
2018-01-16T02:54:46.203Z,96293.62
2018-01-16T02:57:14.456Z,96280.97
2018-01-16T02:59:42.715Z,96280.48
2018-01-16T03:02:11.731Z,96269.07
2018-01-16T03:04:40.755Z,96269.31
2018-01-16T03:07:09.004Z,96267.74
2018-01-16T03:09:37.313Z,96248.88
2018-01-16T03:12:06.348Z,96248.88
2018-01-16T03:14:35.548Z,96255.98
2018-01-16T03:17:03.804Z,96218.88
2018-01-16T03:19:32.052Z,96230.64
2018-01-16T03:22:00.319Z,96221.52
2018-01-16T03:24:28.563Z,96233.89
2018-01-16T03:26:56.835Z,96225.91
2018-01-16T03:29:25.091Z,96222.35
2018-01-16T03:31:53.372Z,96219.66
2018-01-16T03:34:22.406Z,96212.92
2018-01-16T03:36:50.732Z,96212.25
2018-01-16T03:39:19.828Z,96207.91
2018-01-16T03:41:48.149Z,96205.55
2018-01-16T03:44:18.583Z,96192.97
2018-01-16T03:46:47.659Z,96187.31
2018-01-16T03:49:16.657Z,96186.09
2018-01-16T03:51:44.911Z,96183.27
2018-01-16T03:54:13.159Z,96166.45
2018-01-16T03:56:41.425Z,96156.20
2018-01-16T03:59:09.666Z,96170.88
2018-01-16T04:01:37.986Z,96170.45
2018-01-16T04:04:06.222Z,96162.87
2018-01-16T04:06:34.491Z,96160.66
2018-01-16T04:09:02.740Z,96151.00
2018-01-16T04:11:31.016Z,96150.58
2018-01-16T04:13:59.265Z,96135.40
2018-01-16T04:16:27.536Z,96125.91
2018-01-16T04:18:55.779Z,96126.09
2018-01-16T04:21:24.026Z,96135.09
2018-01-16T04:23:52.278Z,96138.19
2018-01-16T04:26:20.542Z,96134.25
2018-01-16T04:28:48.775Z,96137.30
2018-01-16T04:31:17.048Z,96115.13
2018-01-16T04:33:45.302Z,96115.35
2018-01-16T04:36:14.318Z,96103.21
2018-01-16T04:38:43.347Z,96105.33
2018-01-16T04:41:11.678Z,96104.84
2018-01-16T04:43:39.966Z,96103.39
2018-01-16T04:46:09.063Z,96098.63
2018-01-16T04:48:37.366Z,96098.36
2018-01-16T04:51:05.651Z,96094.00
2018-01-16T04:53:33.894Z,96108.38
2018-01-16T04:56:02.144Z,96084.73
2018-01-16T04:58:31.168Z,96080.88
2018-01-16T05:01:00.196Z,96097.41
2018-01-16T05:03:28.483Z,96083.64
2018-01-16T05:05:56.755Z,96076.25
2018-01-16T05:08:25.024Z,96074.80
2018-01-16T05:10:53.263Z,96072.28
2018-01-16T05:13:21.535Z,96071.75
2018-01-16T05:15:49.793Z,96056.84
2018-01-16T05:18:18.815Z,96040.59
2018-01-16T05:20:47.063Z,96050.73
2018-01-16T05:23:15.336Z,96043.22
2018-01-16T05:25:43.591Z,96022.60
2018-01-16T05:28:11.892Z,96009.75
2018-01-16T05:30:40.154Z,96012.27
2018-01-16T05:33:08.467Z,96011.63
2018-01-16T05:35:36.712Z,96014.00
2018-01-16T05:38:05.736Z,96001.20
2018-01-16T05:40:34.748Z,96010.05
2018-01-16T05:43:03.025Z,95970.92
2018-01-16T05:45:32.280Z,95972.25
2018-01-16T05:48:00.640Z,95990.50
2018-01-16T05:50:28.891Z,95995.64
2018-01-16T05:52:57.168Z,95995.52
2018-01-16T05:55:25.411Z,96001.70
2018-01-16T05:57:53.671Z,96000.67
2018-01-16T06:00:21.978Z,95992.20
2018-01-16T06:02:51.072Z,95993.27
2018-01-16T06:05:19.351Z,95980.45
2018-01-16T06:07:47.603Z,95988.66
2018-01-16T06:10:15.894Z,95986.13
2018-01-16T06:12:44.147Z,95980.48
2018-01-16T06:15:12.408Z,95978.09
2018-01-16T06:17:40.926Z,95974.00
2018-01-16T06:20:09.971Z,95980.08
2018-01-16T06:22:38.273Z,95987.08
2018-01-16T06:25:06.546Z,95982.84
2018-01-16T06:27:34.787Z,95988.12
2018-01-16T06:30:03.868Z,95990.63
2018-01-16T06:32:32.106Z,95974.23
2018-01-16T06:35:00.364Z,95998.03
2018-01-16T06:37:29.370Z,95981.26
2018-01-16T06:39:57.643Z,95980.34
2018-01-16T06:42:25.891Z,96009.97
2018-01-16T06:44:54.197Z,96025.27
2018-01-16T06:47:22.463Z,96009.03
2018-01-16T06:49:50.773Z,96011.29
2018-01-16T06:52:19.034Z,96018.16
2018-01-16T06:54:47.301Z,96040.88
2018-01-16T06:57:16.299Z,96034.81
2018-01-16T06:59:45.323Z,96026.61
2018-01-16T07:02:14.339Z,96034.70
2018-01-16T07:04:42.584Z,96036.28
2018-01-16T07:07:10.835Z,96043.56
2018-01-16T07:09:39.107Z,96037.59
2018-01-16T07:12:07.384Z,96031.92
2018-01-16T07:14:36.412Z,96030.05
2018-01-16T07:17:04.659Z,96028.86
2018-01-16T07:19:32.938Z,96039.17
2018-01-16T07:22:01.203Z,96035.73
2018-01-16T07:24:29.459Z,96036.39
2018-01-16T07:26:57.723Z,96043.03
2018-01-16T07:29:25.987Z,96041.44
2018-01-16T07:31:54.237Z,96048.03
2018-01-16T07:34:22.505Z,96053.17
2018-01-16T07:36:51.511Z,96064.45
2018-01-16T07:39:19.753Z,96071.70
2018-01-16T07:41:48.027Z,96066.02
2018-01-16T07:44:16.281Z,96055.03
2018-01-16T07:46:44.608Z,96068.37
2018-01-16T07:49:13.672Z,96064.55
2018-01-16T07:51:42.781Z,96062.00
2018-01-16T07:54:11.843Z,96077.38
2018-01-16T07:56:40.127Z,96080.95
2018-01-16T07:59:08.454Z,96081.89
2018-01-16T08:01:37.483Z,96099.22
2018-01-16T08:04:05.735Z,96105.70
2018-01-16T08:06:33.991Z,96101.09
2018-01-16T08:09:02.249Z,96111.81
2018-01-16T08:11:30.516Z,96117.61
2018-01-16T08:13:59.608Z,96114.06
2018-01-16T08:16:29.514Z,96127.75
2018-01-16T08:18:57.847Z,96109.38
2018-01-16T08:21:26.879Z,96132.38
2018-01-16T08:23:55.142Z,96133.41
2018-01-16T08:26:24.172Z,96131.84
2018-01-16T08:28:52.408Z,96138.32
2018-01-16T08:31:20.669Z,96130.78
2018-01-16T08:33:48.912Z,96132.83
2018-01-16T08:36:17.942Z,96136.27
2018-01-16T08:38:46.226Z,96128.20
2018-01-16T08:41:14.532Z,96118.92
2018-01-16T08:43:42.899Z,96127.44
2018-01-16T08:46:11.934Z,96140.78
2018-01-16T08:48:40.182Z,96127.77
2018-01-16T08:51:09.219Z,96126.45
2018-01-16T08:53:37.468Z,96129.06
2018-01-16T08:56:06.521Z,96128.50
2018-01-16T08:58:34.774Z,96138.41
2018-01-16T09:01:03.058Z,96132.10
2018-01-16T09:03:31.421Z,96127.48
2018-01-16T09:05:59.719Z,96137.25
2018-01-16T09:08:27.962Z,96143.91
2018-01-16T09:10:56.213Z,96126.22
2018-01-16T09:13:25.292Z,96111.28
2018-01-16T09:15:53.542Z,96116.17
2018-01-16T09:18:21.860Z,96121.20
2018-01-16T09:20:50.152Z,96138.53
2018-01-16T09:23:18.611Z,96131.27
2018-01-16T09:25:47.648Z,96125.02
2018-01-16T09:28:15.977Z,96126.48
2018-01-16T09:30:44.993Z,96116.05
2018-01-16T09:33:14.024Z,96123.84
2018-01-16T09:35:42.270Z,96117.62
2018-01-16T09:38:10.548Z,96119.23
2018-01-16T09:40:38.800Z,96137.34
2018-01-16T09:43:07.162Z,96141.06
2018-01-16T09:45:35.457Z,96126.61
2018-01-16T09:48:03.719Z,96122.34
2018-01-16T09:50:31.965Z,96126.19
2018-01-16T09:53:00.248Z,96123.14
2018-01-16T09:55:28.518Z,96113.91
2018-01-16T09:57:56.833Z,96128.34
2018-01-16T10:00:25.074Z,96098.39
2018-01-16T10:02:53.346Z,96097.98
2018-01-16T10:05:21.631Z,96111.44
2018-01-16T10:07:49.887Z,96106.95
2018-01-16T10:10:18.147Z,96102.22
2018-01-16T10:12:47.205Z,96104.33
2018-01-16T10:15:16.261Z,96093.51
2018-01-16T10:17:44.531Z,96090.44
2018-01-16T10:20:14.151Z,96100.91
2018-01-16T10:22:42.450Z,96092.19
2018-01-16T10:25:11.485Z,96088.64
2018-01-16T10:27:39.767Z,96088.64
2018-01-16T10:30:08.097Z,96102.01
2018-01-16T10:32:36.393Z,96088.36
2018-01-16T10:35:04.647Z,96077.80
2018-01-16T10:37:32.896Z,96081.11
2018-01-16T10:40:02.558Z,96087.60
2018-01-16T10:42:30.807Z,96100.84
2018-01-16T10:44:59.118Z,96083.24
2018-01-16T10:47:27.390Z,96086.66
2018-01-16T10:49:56.429Z,96082.84
2018-01-16T10:52:24.683Z,96094.06
2018-01-16T10:54:53.723Z,96089.98
2018-01-16T10:57:21.971Z,96090.34
2018-01-16T10:59:51.763Z,96093.00
2018-01-16T11:02:20.016Z,96068.22
2018-01-16T11:04:48.279Z,96071.91
2018-01-16T11:07:17.283Z,96063.03
2018-01-16T11:09:46.328Z,96069.39
2018-01-16T11:12:14.573Z,96057.59
2018-01-16T11:14:43.622Z,96045.69
2018-01-16T11:17:11.883Z,96042.39
2018-01-16T11:19:40.979Z,96034.26
2018-01-16T11:22:09.275Z,96029.69
2018-01-16T11:24:37.579Z,96029.26
2018-01-16T11:27:05.875Z,96033.55
2018-01-16T11:29:34.129Z,96029.19
2018-01-16T11:32:03.152Z,96020.47
2018-01-16T11:34:32.372Z,96026.17
2018-01-16T11:37:01.062Z,96023.54
2018-01-16T11:39:30.087Z,96024.47
2018-01-16T11:41:58.516Z,96036.26
2018-01-16T11:44:26.827Z,96031.61
2018-01-16T11:46:55.063Z,96037.70
2018-01-16T11:49:23.333Z,96033.63
2018-01-16T11:51:51.583Z,96035.88
2018-01-16T11:54:19.850Z,96032.45
2018-01-16T11:56:48.095Z,96030.72
2018-01-16T11:59:16.362Z,96017.77
2018-01-16T12:01:44.635Z,96017.63
2018-01-16T12:04:12.921Z,96025.56
2018-01-16T12:06:41.182Z,96035.61
2018-01-16T12:09:09.467Z,96027.28
2018-01-16T12:11:37.793Z,96034.15
2018-01-16T12:14:06.024Z,96043.41
2018-01-16T12:16:34.287Z,96047.78
2018-01-16T12:19:02.546Z,96067.90
2018-01-16T12:21:30.802Z,96106.11
2018-01-16T12:23:59.080Z,96142.62
2018-01-16T12:26:27.358Z,96160.40
2018-01-16T12:28:55.605Z,96170.78
2018-01-16T12:31:23.885Z,96126.73
2018-01-16T12:33:52.128Z,96145.92
2018-01-16T12:36:20.403Z,96140.73
2018-01-16T12:38:48.651Z,96141.58
2018-01-16T12:41:16.906Z,96132.59
2018-01-16T12:43:45.162Z,96133.98
2018-01-16T12:46:13.515Z,96124.95
2018-01-16T12:48:41.841Z,96142.50
2018-01-16T12:51:10.889Z,96169.47
2018-01-16T12:53:39.183Z,96169.64
2018-01-16T12:56:07.444Z,96157.01
2018-01-16T12:58:35.696Z,96135.05
2018-01-16T13:01:03.979Z,96113.00
2018-01-16T13:03:32.215Z,96110.95
2018-01-16T13:06:00.470Z,96131.28
2018-01-16T13:08:28.723Z,96104.84
2018-01-16T13:10:57.039Z,96099.33
2018-01-16T13:13:25.304Z,96083.98
2018-01-16T13:15:53.575Z,96073.20
2018-01-16T13:18:21.848Z,96072.06
2018-01-16T13:20:50.873Z,96078.39
2018-01-16T13:23:19.123Z,96081.06
2018-01-16T13:25:48.143Z,96098.51
2018-01-16T13:28:17.159Z,96101.20
2018-01-16T13:30:45.435Z,96108.39
2018-01-16T13:33:14.457Z,96101.70
2018-01-16T13:35:42.711Z,96107.09
2018-01-16T13:38:10.993Z,96082.00
2018-01-16T13:40:39.246Z,96079.51
2018-01-16T13:43:07.500Z,96106.90
2018-01-16T13:45:36.512Z,96110.35
2018-01-16T13:48:04.783Z,96095.28
2018-01-16T13:50:33.798Z,96086.00
2018-01-16T13:53:02.854Z,96102.67
2018-01-16T13:55:31.066Z,96129.53
2018-01-16T13:57:59.344Z,96119.88
2018-01-16T14:00:27.596Z,96128.48
2018-01-16T14:02:55.881Z,96127.16
2018-01-16T14:05:24.230Z,96134.97
2018-01-16T14:07:52.503Z,96141.05
2018-01-16T14:10:20.827Z,96146.08
2018-01-16T14:12:49.961Z,96161.55
2018-01-16T14:15:18.222Z,96168.66
2018-01-16T14:17:46.502Z,96168.38
2018-01-16T14:20:14.757Z,96188.22
2018-01-16T14:22:43.024Z,96177.08
2018-01-16T14:25:11.267Z,96197.14
2018-01-16T14:27:40.297Z,96200.06
2018-01-16T14:30:08.551Z,96212.67
2018-01-16T14:32:37.595Z,96193.47
2018-01-16T14:35:05.844Z,96209.97
2018-01-16T14:37:34.175Z,96200.53
2018-01-16T14:40:03.192Z,96200.29
2018-01-16T14:42:31.455Z,96215.25
2018-01-16T14:45:00.489Z,96217.34
2018-01-16T14:47:28.740Z,96227.31
2018-01-16T14:49:56.997Z,96215.91
2018-01-16T14:52:25.267Z,96205.63
2018-01-16T14:54:53.644Z,96200.09
2018-01-16T14:57:21.951Z,96198.22
2018-01-16T14:59:50.258Z,96205.73
2018-01-16T15:02:18.528Z,96198.09
2018-01-16T15:04:46.806Z,96204.30
2018-01-16T15:07:15.061Z,96206.30
2018-01-16T15:09:44.091Z,96208.42
2018-01-16T15:12:12.342Z,96208.22
2018-01-16T15:14:40.631Z,96225.19
2018-01-16T15:17:08.940Z,96221.94
2018-01-16T15:19:37.967Z,96210.73
2018-01-16T15:22:06.216Z,96194.05
2018-01-16T15:24:34.480Z,96214.37
2018-01-16T15:27:02.717Z,96201.90
2018-01-16T15:29:31.766Z,96184.23
2018-01-16T15:32:00.029Z,96184.12
2018-01-16T15:34:28.299Z,96203.01
2018-01-16T15:36:57.308Z,96198.05
2018-01-16T15:39:26.335Z,96200.28
2018-01-16T15:41:54.625Z,96188.89
2018-01-16T15:44:22.911Z,96198.21
2018-01-16T15:46:51.242Z,96182.50
2018-01-16T15:49:19.534Z,96192.61
2018-01-16T15:51:47.770Z,96194.57
2018-01-16T15:54:16.071Z,96178.60
2018-01-16T15:56:44.323Z,96192.98
2018-01-16T15:59:12.629Z,96186.50
2018-01-16T16:01:40.894Z,96172.77
2018-01-16T16:04:09.967Z,96166.45
2018-01-16T16:06:38.392Z,96155.75
2018-01-16T16:09:07.435Z,96166.11
2018-01-16T16:11:35.692Z,96180.02
2018-01-16T16:14:03.964Z,96185.34
2018-01-16T16:16:32.212Z,96196.58
2018-01-16T16:19:00.556Z,96191.71
2018-01-16T16:21:28.833Z,96204.56
2018-01-16T16:23:57.125Z,96201.94
2018-01-16T16:26:25.437Z,96206.17
2018-01-16T16:28:53.656Z,96217.30
2018-01-16T16:31:21.913Z,96214.31
2018-01-16T16:33:50.172Z,96211.56
2018-01-16T16:36:18.457Z,96204.05
2018-01-16T16:38:46.719Z,96207.90
2018-01-16T16:41:14.974Z,96218.78
2018-01-16T16:43:44.018Z,96214.03
2018-01-16T16:46:12.298Z,96213.80
2018-01-16T16:48:40.615Z,96221.92
2018-01-16T16:51:08.945Z,96220.33
2018-01-16T16:53:37.212Z,96209.25
2018-01-16T16:56:05.488Z,96219.73
2018-01-16T16:58:33.735Z,96205.58
2018-01-16T17:01:02.000Z,96201.73
2018-01-16T17:03:31.020Z,96196.09
2018-01-16T17:06:00.052Z,96183.93
2018-01-16T17:08:28.287Z,96174.97
2018-01-16T17:10:56.565Z,96180.92
2018-01-16T17:13:24.901Z,96166.65
2018-01-16T17:15:53.959Z,96155.20
2018-01-16T17:18:22.220Z,96164.60
2018-01-16T17:20:50.530Z,96172.56
2018-01-16T17:23:18.801Z,96179.08
2018-01-16T17:25:47.059Z,96185.66
2018-01-16T17:28:15.307Z,96171.41
2018-01-16T17:30:43.583Z,96181.97
2018-01-16T17:33:11.857Z,96192.94
2018-01-16T17:35:40.134Z,96215.15
2018-01-16T17:38:08.414Z,96220.11
2018-01-16T17:40:36.700Z,96221.63
2018-01-16T17:43:04.951Z,96221.35
2018-01-16T17:45:33.579Z,96222.00
2018-01-16T17:48:01.846Z,96197.22
2018-01-16T17:50:30.880Z,96202.09
2018-01-16T17:52:59.138Z,96204.22
2018-01-16T17:55:27.406Z,96219.41
2018-01-16T17:57:55.668Z,96211.38
2018-01-16T18:00:23.936Z,96204.33
2018-01-16T18:02:52.235Z,96211.91
2018-01-16T18:05:20.611Z,96228.30
2018-01-16T18:07:48.924Z,96233.58
2018-01-16T18:10:17.951Z,96236.07
2018-01-16T18:12:46.239Z,96238.56
2018-01-16T18:15:14.543Z,96236.02
2018-01-16T18:17:43.248Z,96217.98
2018-01-16T18:20:11.512Z,96219.10
2018-01-16T18:22:39.791Z,96219.31
2018-01-16T18:25:08.797Z,96229.22
2018-01-16T18:27:37.083Z,96236.77
2018-01-16T18:30:05.332Z,96226.34
2018-01-16T18:32:34.474Z,96218.38
2018-01-16T18:35:02.720Z,96237.65
2018-01-16T18:37:30.983Z,96238.62
2018-01-16T18:39:59.232Z,96233.63
2018-01-16T18:42:27.488Z,96225.23
2018-01-16T18:44:55.735Z,96226.83
2018-01-16T18:47:24.041Z,96236.14
2018-01-16T18:49:52.304Z,96225.96
2018-01-16T18:52:20.612Z,96245.13
2018-01-16T18:54:48.895Z,96245.34
2018-01-16T18:57:17.939Z,96241.49
2018-01-16T18:59:46.975Z,96230.56
2018-01-16T19:02:15.260Z,96226.63
2018-01-16T19:04:44.270Z,96233.23
2018-01-16T19:07:12.541Z,96242.21
2018-01-16T19:09:41.561Z,96247.11
2018-01-16T19:12:10.612Z,96240.84
2018-01-16T19:14:38.870Z,96244.45
2018-01-16T19:17:07.215Z,96241.25
2018-01-16T19:19:33.379Z,96241.56
2018-01-16T19:22:00.296Z,96213.51
2018-01-16T19:24:26.518Z,96221.45
2018-01-16T19:26:52.711Z,96233.04
2018-01-16T19:29:18.983Z,96232.55
2018-01-16T19:31:45.133Z,96241.23
2018-01-16T19:34:11.300Z,96231.89
2018-01-16T19:36:37.565Z,96239.12
2018-01-16T19:39:03.750Z,96244.47
2018-01-16T19:41:29.928Z,96236.46
2018-01-16T19:43:56.909Z,96242.41
2018-01-16T19:46:23.896Z,96239.92
2018-01-16T19:48:50.217Z,96229.28
2018-01-16T19:51:17.144Z,96246.17
2018-01-16T19:53:43.306Z,96253.07
2018-01-16T19:56:09.540Z,96259.44
2018-01-16T19:58:35.732Z,96267.52
2018-01-16T20:01:03.025Z,96262.41
2018-01-16T20:03:29.268Z,96261.39
2018-01-16T20:05:55.467Z,96261.14
2018-01-16T20:08:21.715Z,96251.73
2018-01-16T20:10:47.989Z,96229.66
2018-01-16T20:13:14.944Z,96221.68
2018-01-16T20:15:41.200Z,96231.79
2018-01-16T20:18:07.480Z,96234.52
2018-01-16T20:20:33.703Z,96238.56
2018-01-16T20:23:00.583Z,96228.89
2018-01-16T20:25:26.850Z,96213.42
2018-01-16T20:27:53.069Z,96209.77
2018-01-16T20:30:19.239Z,96195.06
2018-01-16T20:32:45.418Z,96186.20
2018-01-16T20:35:11.670Z,96177.01
2018-01-16T20:37:38.743Z,96152.73
2018-01-16T20:40:04.997Z,96149.52
2018-01-16T20:42:31.980Z,96134.00
2018-01-16T20:44:58.194Z,96110.09
2018-01-16T20:47:24.467Z,96097.53
2018-01-16T20:49:51.320Z,96100.47
2018-01-16T20:52:17.576Z,96104.44
2018-01-16T20:54:43.919Z,96120.99
2018-01-16T20:57:10.157Z,96113.53
2018-01-16T20:59:36.410Z,96111.45
2018-01-16T21:02:02.583Z,96124.48
2018-01-16T21:04:29.553Z,96121.30
2018-01-16T21:06:55.721Z,96133.77
2018-01-16T21:09:21.982Z,96139.73
2018-01-16T21:11:48.143Z,96124.64
2018-01-16T21:14:14.366Z,96131.19
2018-01-16T21:16:40.709Z,96129.05
2018-01-16T21:19:07.018Z,96138.30
2018-01-16T21:21:33.215Z,96142.07
2018-01-16T21:24:00.186Z,96134.84
2018-01-16T21:26:27.158Z,96144.14
2018-01-16T21:28:53.350Z,96138.48
2018-01-16T21:31:19.500Z,96139.43
2018-01-16T21:33:45.826Z,96144.69
2018-01-16T21:36:12.045Z,96155.84
2018-01-16T21:38:38.289Z,96151.97
2018-01-16T21:41:04.584Z,96152.36
2018-01-16T21:43:31.492Z,96162.03
2018-01-16T21:45:57.794Z,96155.25
2018-01-16T21:48:24.093Z,96144.24
2018-01-16T21:50:50.349Z,96149.64
2018-01-16T21:53:16.624Z,96145.05
2018-01-16T21:55:42.858Z,96134.95
2018-01-16T21:58:09.020Z,96132.61
2018-01-16T22:00:35.939Z,96127.30
2018-01-16T22:03:02.895Z,96129.83
2018-01-16T22:05:29.834Z,96125.08
2018-01-16T22:07:56.068Z,96118.48
2018-01-16T22:10:22.315Z,96106.97
2018-01-16T22:12:48.482Z,96105.58
2018-01-16T22:15:14.763Z,96101.22
2018-01-16T22:17:40.948Z,96093.65
2018-01-16T22:20:07.197Z,96086.01
2018-01-16T22:22:34.087Z,96095.22
2018-01-16T22:25:00.368Z,96090.37
2018-01-16T22:27:26.681Z,96098.11
2018-01-16T22:29:53.136Z,96097.84
2018-01-16T22:32:19.672Z,96095.19
2018-01-16T22:34:48.239Z,96100.47
2018-01-16T22:37:15.182Z,96098.36
2018-01-16T22:39:41.382Z,96103.45
2018-01-16T22:42:07.831Z,96107.87
2018-01-16T22:44:34.317Z,96113.47
2018-01-16T22:47:01.760Z,96118.34
2018-01-16T22:49:28.647Z,96104.47
2018-01-16T22:51:55.550Z,96093.34
2018-01-16T22:54:22.026Z,96096.44
2018-01-16T22:56:48.478Z,96093.69
2018-01-16T22:59:14.656Z,96084.85
2018-01-16T23:01:40.815Z,96099.44
2018-01-16T23:04:07.426Z,96085.21
2018-01-16T23:06:34.710Z,96092.84
2018-01-16T23:09:00.912Z,96090.14
2018-01-16T23:11:27.072Z,96085.84
2018-01-16T23:13:53.971Z,96086.22
2018-01-16T23:16:20.123Z,96078.59
2018-01-16T23:18:46.251Z,96078.16
2018-01-16T23:21:12.451Z,96081.34
2018-01-16T23:23:39.363Z,96079.28
2018-01-16T23:26:05.593Z,96064.34
2018-01-16T23:28:31.776Z,96067.33
2018-01-16T23:30:57.934Z,96064.34
2018-01-16T23:33:24.832Z,96050.23
2018-01-16T23:35:51.075Z,96066.14
2018-01-16T23:38:17.276Z,96054.81
2018-01-16T23:40:43.428Z,96052.02
2018-01-16T23:43:09.641Z,96042.86
2018-01-16T23:45:36.676Z,96045.53
2018-01-16T23:48:03.067Z,96040.97
2018-01-16T23:50:29.309Z,96030.95
2018-01-16T23:52:56.181Z,96025.64
2018-01-16T23:55:22.345Z,96035.48
2018-01-16T23:57:48.527Z,96032.24
